Time;durP1;ratioP1;P1;durP2;ratioP2;P2;SDS_P1;SDS_P2;PMS_P1;PMS_P2;Temp;Humidity;BMP_temperature;BMP_pressure;BME280_temperature;BME280_humidity;BME280_pressure;Samples;Min_cycle;Max_cycle;Signal;HPM_P1;HPM_P2
2022/06/20 00:01:18;;;;;;;;;;;;;;;15.26;74.28;101587.47;5045388;28;20085;-63
2022/06/20 00:03:44;;;;;;;;;;;;;;;15.21;74.49;101582.34;5046018;28;19924;-63
2022/06/20 00:06:13;;;;;;;;;;;;;;;15.07;75.12;101582.91;5025728;28;19936;-63
2022/06/20 00:08:38;;;;;;;;;;;;;;;15.10;75.17;101588.09;5026619;28;19917;-63
2022/06/20 00:11:03;;;;;;;;;;;;;;;14.93;75.79;101586.09;5025390;28;20000;-63
2022/06/20 00:13:31;;;;;;;;;;;;;;;15.03;75.66;101586.63;5019714;28;19972;-63
2022/06/20 00:15:56;;;;;;;;;;;;;;;15.08;75.65;101581.97;5026168;28;20016;-63
2022/06/20 00:18:22;;;;;;;;;;;;;;;15.14;75.46;101589.69;5026417;28;20364;-63
2022/06/20 00:20:47;;;;;;;;;;;;;;;15.16;75.48;101589.63;5023495;28;20358;-63
2022/06/20 00:23:13;;;;;;;;;;;;;;;15.07;75.98;101590.88;5025359;28;19917;-63
2022/06/20 00:25:38;;;;;;;;;;;;;;;15.06;75.88;101594.47;5024652;28;19939;-63
2022/06/20 00:28:04;;;;;;;;;;;;;;;15.09;75.73;101604.06;5024814;28;19996;-64
2022/06/20 00:30:29;;;;;;;;;;;;;;;15.05;75.86;101615.75;5027027;28;19948;-63
2022/06/20 00:32:54;;;;;;;;;;;;;;;14.99;75.96;101622.16;5045127;28;19920;-63
2022/06/20 00:35:20;;;;;;;;;;;;;;;14.91;76.17;101630.44;5045163;28;19943;-63
2022/06/20 00:37:45;;;;;;;;;;;;;;;14.88;76.66;101607.53;5046071;28;19916;-63
2022/06/20 00:40:21;;;;;;;;;;;;;;;14.90;76.48;101616.28;5043783;28;20327;-63
2022/06/20 00:42:46;;;;;;;;;;;;;;;14.83;76.96;101617.47;5046353;28;20012;-63
2022/06/20 00:45:12;;;;;;;;;;;;;;;14.80;77.04;101611.41;5034276;28;20012;-66
2022/06/20 00:47:37;;;;;;;;;;;;;;;14.70;76.94;101616.19;5025317;28;20016;-64
2022/06/20 00:50:06;;;;;;;;;;;;;;;14.54;78.25;101611.47;5025119;28;20268;-62
2022/06/20 00:52:33;;;;;;;;;;;;;;;14.48;78.35;101615.22;5024962;28;19971;-65
2022/06/20 00:55:00;;;;;;;;;;;;;;;14.32;78.90;101606.97;5023068;28;19921;-63
2022/06/20 00:57:32;;;;;;;;;;;;;;;14.25;79.21;101610.78;5040417;28;19917;-63
2022/06/20 01:00:06;;;;;;;;;;;;;;;14.09;80.16;101627.25;5040447;28;19924;-63
2022/06/20 01:02:32;;;;;;;;;;;;;;;13.99;80.76;101629.38;5026259;28;19963;-65
2022/06/20 01:04:58;;;;;;;;;;;;;;;14.08;80.33;101638.78;5025597;28;19921;-63
2022/06/20 01:07:33;;;;;;;;;;;;;;;14.17;80.12;101639.38;5025904;28;19920;-63
2022/06/20 01:09:59;;;;;;;;;;;;;;;14.10;80.62;101649.31;5022219;28;19957;-63
2022/06/20 01:12:25;;;;;;;;;;;;;;;14.18;80.22;101657.84;5024444;28;19964;-63
2022/06/20 01:14:51;;;;;;;;;;;;;;;14.23;79.93;101661.22;5023072;28;20052;-64
2022/06/20 01:17:30;;;;;;;;;;;;;;;14.26;79.88;101676.13;5025778;28;20008;-62
2022/06/20 01:19:55;;;;;;;;;;;;;;;14.33;79.75;101690.88;5025058;28;20078;-64
2022/06/20 01:22:20;;;;;;;;;;;;;;;14.38;79.94;101686.28;5025554;28;20363;-62
2022/06/20 01:24:48;;;;;;;;;;;;;;;14.43;79.32;101690.56;5024245;28;19924;-63
2022/06/20 01:27:19;;;;;;;;;;;;;;;14.49;79.00;101690.34;5023449;28;19924;-63
2022/06/20 01:29:44;;;;;;;;;;;;;;;14.50;78.78;101689.41;5023672;28;19928;-63
2022/06/20 01:32:09;;;;;;;;;;;;;;;14.49;78.90;101693.00;5025307;28;19920;-64
2022/06/20 01:34:35;;;;;;;;;;;;;;;14.58;78.48;101687.34;5023791;28;20024;-63
2022/06/20 01:39:46;;;;;;;;;;;;;;;14.44;78.79;101673.72;5023353;28;20368;-63
2022/06/20 01:42:21;;;;;;;;;;;;;;;14.52;78.76;101679.63;5025343;28;20438;-63
2022/06/20 01:44:46;;;;;;;;;;;;;;;14.50;78.73;101655.81;5024747;28;20481;-63
2022/06/20 01:47:11;;;;;;;;;;;;;;;14.60;78.53;101651.00;5023795;28;19979;-63
2022/06/20 01:49:36;;;;;;;;;;;;;;;14.64;78.35;101646.47;5024711;28;19935;-63
2022/06/20 01:52:04;;;;;;;;;;;;;;;14.57;78.57;101643.16;5025013;28;20008;-63
2022/06/20 01:54:31;;;;;;;;;;;;;;;14.56;79.07;101648.53;5043753;28;19924;-63
2022/06/20 01:56:56;;;;;;;;;;;;;;;14.50;79.42;101649.63;5044993;28;19921;-63
2022/06/20 01:59:23;;;;;;;;;;;;;;;14.53;78.88;101653.03;5044365;28;19924;-62
2022/06/20 02:01:48;;;;;;;;;;;;;;;14.52;79.22;101646.03;5044102;28;20482;-63
2022/06/20 02:04:14;;;;;;;;;;;;;;;14.48;79.34;101641.72;5042812;28;20020;-62
2022/06/20 02:06:39;;;;;;;;;;;;;;;14.55;79.04;101639.72;5044053;28;19978;-63
2022/06/20 02:09:05;;;;;;;;;;;;;;;14.55;79.01;101637.06;5044107;28;19917;-63
2022/06/20 02:11:30;;;;;;;;;;;;;;;14.46;79.34;101640.06;5043442;28;19921;-64
2022/06/20 02:13:58;;;;;;;;;;;;;;;14.50;78.83;101631.06;5043330;28;19917;-62
2022/06/20 02:16:23;;;;;;;;;;;;;;;14.50;79.20;101628.41;5024002;28;19976;-64
2022/06/20 02:18:49;;;;;;;;;;;;;;;14.45;79.04;101631.22;5024780;28;19917;-63
2022/06/20 02:21:20;;;;;;;;;;;;;;;14.44;79.16;101626.00;5022621;28;19968;-63
2022/06/20 02:23:46;;;;;;;;;;;;;;;14.46;78.85;101625.03;5007284;28;19917;-63
2022/06/20 02:26:12;;;;;;;;;;;;;;;14.43;78.65;101618.97;5023088;28;20295;-64
2022/06/20 02:28:43;;;;;;;;;;;;;;;14.44;78.71;101628.63;5023282;28;19929;-64
2022/06/20 02:31:08;;;;;;;;;;;;;;;14.36;79.03;101635.09;5033930;28;19960;-64
2022/06/20 02:33:34;;;;;;;;;;;;;;;14.24;79.08;101635.56;5023280;28;19983;-64
2022/06/20 02:35:59;;;;;;;;;;;;;;;14.28;78.96;101632.75;5035488;28;19960;-64
2022/06/20 02:38:25;;;;;;;;;;;;;;;14.28;78.76;101623.94;5043534;28;19920;-61
2022/06/20 02:40:50;;;;;;;;;;;;;;;14.31;78.69;101629.13;5033963;28;20428;-65
2022/06/20 02:43:23;;;;;;;;;;;;;;;14.28;78.55;101627.47;5024867;28;19975;-64
2022/06/20 02:45:48;;;;;;;;;;;;;;;14.28;78.33;101635.41;5025788;28;19917;-64
2022/06/20 02:48:13;;;;;;;;;;;;;;;14.23;78.36;101637.34;5024769;28;19974;-63
2022/06/20 02:50:41;;;;;;;;;;;;;;;14.21;78.47;101627.72;5022553;28;20265;-63
2022/06/20 02:53:12;;;;;;;;;;;;;;;14.18;78.17;101625.19;5023318;28;20298;-63
2022/06/20 02:55:38;;;;;;;;;;;;;;;14.09;78.58;101621.94;5022129;28;20004;-63
2022/06/20 02:58:13;;;;;;;;;;;;;;;14.10;78.30;101626.34;5024374;28;19960;-63
2022/06/20 03:01:01;;;;;;;;;;;;;;;14.09;78.52;101616.63;5021645;28;19929;-64
2022/06/20 03:03:34;;;;;;;;;;;;;;;14.01;78.52;101613.41;5006410;28;19944;-63
2022/06/20 03:05:59;;;;;;;;;;;;;;;13.98;78.54;101618.81;5027034;28;19917;-63
2022/06/20 03:08:24;;;;;;;;;;;;;;;13.99;78.49;101617.91;5027234;28;19917;-63
2022/06/20 03:10:50;;;;;;;;;;;;;;;13.96;78.44;101605.63;5032410;28;19917;-63
2022/06/20 03:13:15;;;;;;;;;;;;;;;13.95;78.75;101603.91;5047936;28;19967;-63
2022/06/20 03:15:43;;;;;;;;;;;;;;;13.93;78.66;101607.53;5045930;28;19920;-63
2022/06/20 03:18:10;;;;;;;;;;;;;;;13.91;78.46;101618.19;5047794;28;19916;-63
2022/06/20 03:20:35;;;;;;;;;;;;;;;13.94;78.05;101614.56;5042582;28;20261;-63
2022/06/20 03:23:02;;;;;;;;;;;;;;;14.01;77.73;101613.41;5028169;28;19917;-65
2022/06/20 03:25:28;;;;;;;;;;;;;;;14.00;77.66;101609.88;5025421;28;19917;-63
2022/06/20 03:27:53;;;;;;;;;;;;;;;14.02;77.62;101601.88;5026609;28;19917;-63
2022/06/20 03:30:19;;;;;;;;;;;;;;;14.03;77.49;101611.59;5025977;28;19917;-64
2022/06/20 03:32:44;;;;;;;;;;;;;;;14.04;77.46;101602.72;5027722;28;19924;-64
2022/06/20 03:35:09;;;;;;;;;;;;;;;14.07;77.30;101604.38;5026951;28;19928;-63
2022/06/20 03:37:36;;;;;;;;;;;;;;;14.09;77.17;101602.53;5021715;28;19922;-63
2022/06/20 03:40:02;;;;;;;;;;;;;;;14.05;76.89;101601.78;5005430;28;19971;-65
2022/06/20 03:42:27;;;;;;;;;;;;;;;13.96;77.30;101596.81;5025573;28;20393;-63
2022/06/20 03:44:54;;;;;;;;;;;;;;;14.04;77.19;101597.41;5027296;28;19979;-63
2022/06/20 03:47:39;;;;;;;;;;;;;;;14.04;76.86;101597.41;5025880;28;19928;-63
2022/06/20 03:50:05;;;;;;;;;;;;;;;14.17;76.31;101591.66;5026245;28;19943;-64
2022/06/20 03:52:33;;;;;;;;;;;;;;;14.21;75.90;101598.56;5023578;28;19927;-62
2022/06/20 03:55:05;;;;;;;;;;;;;;;14.24;75.78;101599.31;5027771;28;20345;-63
2022/06/20 03:57:32;;;;;;;;;;;;;;;14.24;75.98;101614.38;5026751;28;19917;-63
2022/06/20 04:00:00;;;;;;;;;;;;;;;14.21;75.79;101609.19;5019108;28;19945;-62
2022/06/20 04:02:43;;;;;;;;;;;;;;;14.16;76.20;101612.00;5026043;28;19963;-62
2022/06/20 04:05:18;;;;;;;;;;;;;;;14.08;76.72;101619.34;5041860;28;19917;-65
2022/06/20 04:07:46;;;;;;;;;;;;;;;14.18;76.32;101622.53;5026735;28;20016;-64
2022/06/20 04:13:08;;;;;;;;;;;;;;;14.06;76.60;101624.69;5025937;28;20401;-63
2022/06/20 04:15:37;;;;;;;;;;;;;;;13.93;76.75;101620.78;5025761;28;20296;-62
2022/06/20 04:18:28;;;;;;;;;;;;;;;13.87;77.05;101622.72;5022315;28;20370;-63
2022/06/20 04:21:09;;;;;;;;;;;;;;;13.81;77.61;101624.75;5037866;28;20059;-63
2022/06/20 04:23:42;;;;;;;;;;;;;;;13.95;77.19;101629.53;5026139;28;20401;-63
2022/06/20 04:26:07;;;;;;;;;;;;;;;13.94;76.74;101628.66;5040650;28;19994;-63
2022/06/20 04:28:32;;;;;;;;;;;;;;;13.99;76.82;101633.78;5026432;28;20388;-63
2022/06/20 04:30:59;;;;;;;;;;;;;;;14.02;76.68;101639.84;5026248;28;19924;-62
2022/06/20 04:33:32;;;;;;;;;;;;;;;14.03;76.70;101638.94;5025891;28;19917;-62
2022/06/20 04:36:16;;;;;;;;;;;;;;;14.00;76.75;101636.38;5025946;28;20354;-62
2022/06/20 04:38:44;;;;;;;;;;;;;;;14.01;76.86;101642.56;5026368;28;20015;-62
2022/06/20 04:41:10;;;;;;;;;;;;;;;14.09;76.84;101655.53;5040683;28;19918;-63
2022/06/20 04:43:56;;;;;;;;;;;;;;;14.10;76.41;101652.84;5024639;28;20075;-62
2022/06/20 04:46:22;;;;;;;;;;;;;;;14.05;76.57;101657.44;5025654;28;19960;-62
2022/06/20 04:48:47;;;;;;;;;;;;;;;14.21;76.54;101654.25;5041233;28;20376;-63
2022/06/20 04:51:14;;;;;;;;;;;;;;;14.29;76.32;101654.81;5023741;28;20244;-62
2022/06/20 04:53:40;;;;;;;;;;;;;;;14.44;75.70;101649.84;5025814;28;19918;-63
2022/06/20 04:56:07;;;;;;;;;;;;;;;14.58;74.59;101647.56;5040049;28;19917;-62
2022/06/20 04:58:34;;;;;;;;;;;;;;;14.64;74.68;101644.69;5035295;28;20030;-62
2022/06/20 05:00:59;;;;;;;;;;;;;;;14.64;74.30;101642.03;5024712;28;19928;-60
2022/06/20 05:03:39;;;;;;;;;;;;;;;14.75;74.22;101648.72;5039696;28;20279;-61
2022/06/20 05:06:04;;;;;;;;;;;;;;;14.97;73.45;101647.91;5024610;28;19917;-60
2022/06/20 05:08:33;;;;;;;;;;;;;;;15.04;73.65;101652.03;5025113;28;19924;-61
2022/06/20 05:11:01;;;;;;;;;;;;;;;15.22;73.01;101657.50;5039360;28;19956;-60
2022/06/20 05:13:35;;;;;;;;;;;;;;;15.27;72.95;101656.41;5023543;28;20188;-61
2022/06/20 05:16:00;;;;;;;;;;;;;;;15.51;72.22;101644.84;5024704;28;19928;-61
2022/06/20 05:18:28;;;;;;;;;;;;;;;15.60;72.32;101654.22;5022914;28;19921;-61
2022/06/20 05:20:54;;;;;;;;;;;;;;;15.69;71.92;101645.00;5017527;28;20407;-61
2022/06/20 05:23:30;;;;;;;;;;;;;;;15.70;71.28;101641.38;5012207;28;19968;-60
2022/06/20 05:25:55;;;;;;;;;;;;;;;15.61;71.75;101647.97;5002144;28;19917;-61
2022/06/20 05:28:21;;;;;;;;;;;;;;;15.69;71.43;101659.16;5009720;28;19925;-60
2022/06/20 05:30:46;;;;;;;;;;;;;;;15.74;70.74;101659.78;5018096;28;19952;-61
2022/06/20 05:33:21;;;;;;;;;;;;;;;15.72;70.74;101671.44;5013866;28;20019;-61
2022/06/20 05:35:55;;;;;;;;;;;;;;;15.68;70.84;101668.03;5011888;28;19917;-61
2022/06/20 05:38:23;;;;;;;;;;;;;;;15.75;70.78;101663.34;5016071;28;20332;-61
2022/06/20 05:40:49;;;;;;;;;;;;;;;15.68;70.71;101668.03;5015376;28;19929;-60
2022/06/20 05:43:20;;;;;;;;;;;;;;;15.65;70.98;101666.38;5012881;28;20308;-61
2022/06/20 05:45:58;;;;;;;;;;;;;;;15.77;70.30;101664.97;5011889;28;19917;-62
2022/06/20 05:48:25;;;;;;;;;;;;;;;15.87;70.26;101664.59;5016144;28;20044;-60
2022/06/20 05:50:52;;;;;;;;;;;;;;;16.01;70.09;101671.97;5013866;28;20275;-62
2022/06/20 05:53:23;;;;;;;;;;;;;;;16.17;69.52;101669.53;5013100;28;19965;-61
2022/06/20 05:55:48;;;;;;;;;;;;;;;16.23;69.61;101681.69;5017831;28;20368;-61
2022/06/20 05:58:16;;;;;;;;;;;;;;;16.44;68.31;101684.31;5044367;28;20011;-60
2022/06/20 06:00:41;;;;;;;;;;;;;;;16.67;67.80;101691.22;5040627;28;20161;-60
2022/06/20 06:03:12;;;;;;;;;;;;;;;16.67;67.40;101692.09;5019706;28;19963;-62
2022/06/20 06:05:39;;;;;;;;;;;;;;;16.80;67.33;101694.19;5015994;28;20276;-61
2022/06/20 06:08:04;;;;;;;;;;;;;;;16.58;67.07;101689.00;5025357;28;19917;-61
2022/06/20 06:10:32;;;;;;;;;;;;;;;16.40;66.43;101700.41;5023894;28;20394;-59
2022/06/20 06:13:12;;;;;;;;;;;;;;;16.52;66.90;101706.09;5022956;28;20003;-60
2022/06/20 06:16:46;;;;;;;;;;;;;;;16.61;66.12;101702.16;5015597;28;19921;-60
2022/06/20 06:18:26;;;;;;;;;;;;;;;16.74;65.80;101715.78;5015817;28;19921;-61
2022/06/20 06:20:51;;;;;;;;;;;;;;;16.66;66.19;101714.34;5013727;28;19945;-61
2022/06/20 06:23:16;;;;;;;;;;;;;;;16.65;65.91;101717.06;5012584;28;19917;-59
2022/06/20 06:25:42;;;;;;;;;;;;;;;16.58;65.92;101720.94;5015879;28;19972;-62
2022/06/20 06:28:12;;;;;;;;;;;;;;;16.49;65.64;101717.75;5014250;28;20008;-61
2022/06/20 06:30:40;;;;;;;;;;;;;;;16.39;65.37;101722.63;5008785;28;19965;-60
2022/06/20 06:33:07;;;;;;;;;;;;;;;16.63;65.04;101724.25;5015912;28;19917;-61
2022/06/20 06:35:52;;;;;;;;;;;;;;;16.60;64.80;101719.94;5015077;28;19922;-62
2022/06/20 06:38:19;;;;;;;;;;;;;;;16.53;64.56;101719.31;5016754;28;20141;-60
2022/06/20 06:40:46;;;;;;;;;;;;;;;16.60;63.69;101722.59;5015674;28;19987;-60
2022/06/20 06:43:15;;;;;;;;;;;;;;;16.70;63.50;101725.69;5019453;28;19921;-60
2022/06/20 06:45:41;;;;;;;;;;;;;;;16.92;62.43;101714.91;5018360;28;19928;-61
2022/06/20 06:48:14;;;;;;;;;;;;;;;16.87;62.81;101722.25;5018033;28;19921;-61
2022/06/20 06:50:39;;;;;;;;;;;;;;;16.97;62.42;101727.13;5024869;28;19921;-61
2022/06/20 06:53:12;;;;;;;;;;;;;;;17.10;62.74;101727.47;5032015;28;19940;-60
2022/06/20 06:55:41;;;;;;;;;;;;;;;17.21;62.54;101724.25;5041646;28;19924;-61
2022/06/20 06:58:11;;;;;;;;;;;;;;;17.22;61.92;101734.00;5027362;28;19917;-61
2022/06/20 07:00:37;;;;;;;;;;;;;;;17.01;61.31;101734.06;5043134;28;19983;-60
2022/06/20 07:03:13;;;;;;;;;;;;;;;17.00;62.19;101740.28;5045342;28;19939;-61
2022/06/20 07:05:39;;;;;;;;;;;;;;;16.76;63.10;101728.06;5045953;28;19917;-61
2022/06/20 07:08:15;;;;;;;;;;;;;;;16.78;63.81;101728.88;5046287;28;19968;-61
2022/06/20 07:10:52;;;;;;;;;;;;;;;16.84;64.25;101732.16;5013934;28;19925;-60
2022/06/20 07:13:29;;;;;;;;;;;;;;;16.91;63.93;101739.81;5005971;28;19944;-61
2022/06/20 07:15:55;;;;;;;;;;;;;;;17.04;63.53;101739.25;5007409;28;19925;-61
2022/06/20 07:18:40;;;;;;;;;;;;;;;17.06;63.15;101734.69;5001979;28;19956;-60
2022/06/20 07:21:05;;;;;;;;;;;;;;;17.17;62.51;101737.75;5006459;28;19924;-61
2022/06/20 07:23:30;;;;;;;;;;;;;;;17.45;60.93;101734.69;5023672;28;20000;-62
2022/06/20 07:25:56;;;;;;;;;;;;;;;17.67;59.87;101738.00;5019504;28;19988;-62
2022/06/20 07:28:24;;;;;;;;;;;;;;;17.63;58.61;101741.78;5009531;28;19976;-61
2022/06/20 07:30:50;;;;;;;;;;;;;;;17.61;59.00;101748.13;5029357;28;19951;-61
2022/06/20 07:33:42;;;;;;;;;;;;;;;17.64;59.13;101745.31;5020399;28;20376;-60
2022/06/20 07:36:08;;;;;;;;;;;;;;;17.69;59.15;101745.94;5029782;28;20413;-63
2022/06/20 07:38:35;;;;;;;;;;;;;;;17.40;59.95;101745.56;5046634;28;19960;-62
2022/06/20 07:41:08;;;;;;;;;;;;;;;17.41;60.31;101740.16;5013868;28;19943;-61
2022/06/20 07:44:55;;;;;;;11.85;2.65;;;;;;;17.20;60.00;101749.19;5016259;27;1945469;-61
2022/06/20 07:47:25;;;;;;;8.65;2.70;;;;;;;17.26;60.79;101755.09;5034641;28;20077;-60
2022/06/20 07:49:54;;;;;;;10.40;2.30;;;;;;;17.50;60.01;101757.50;5062798;28;20822;-62
2022/06/20 07:52:24;;;;;;;9.85;2.22;;;;;;;17.89;60.11;101760.94;5061688;28;20024;-64
2022/06/20 07:54:53;;;;;;;11.27;2.65;;;;;;;18.02;59.02;101754.97;5024105;28;20822;-61
2022/06/20 07:57:22;;;;;;;11.45;2.20;;;;;;;18.07;58.01;101758.28;5044766;28;20417;-61
2022/06/20 08:00:22;;;;;;;9.35;2.08;;;;;;;18.28;58.25;101744.78;5044140;28;20024;-61
2022/06/20 08:02:51;;;;;;;6.70;2.20;;;;;;;18.30;57.12;101750.88;5008678;28;20138;-61
2022/06/20 08:05:28;;;;;;;10.75;2.50;;;;;;;18.61;56.78;101740.41;5023561;28;20135;-62
2022/06/20 08:07:59;;;;;;;8.90;2.63;;;;;;;18.76;55.96;101741.41;5041113;28;20457;-60
2022/06/20 08:10:38;;;;;;;9.07;2.45;;;;;;;18.96;55.61;101748.28;5039901;28;20021;-60
2022/06/20 08:13:27;;;;;;;9.15;2.50;;;;;;;18.99;54.67;101755.28;5041283;28;20033;-60
2022/06/20 08:15:59;;;;;;;10.63;2.70;;;;;;;18.79;55.14;101749.25;5041707;28;20060;-60
2022/06/20 08:18:25;;;;;;;6.93;1.95;;;;;;;18.37;56.56;101747.00;5023634;28;20028;-61
2022/06/20 08:21:13;;;;;;;6.82;1.83;;;;;;;18.45;56.35;101749.22;5042156;28;20031;-62
2022/06/20 08:23:48;;;;;;;7.88;2.10;;;;;;;18.38;54.91;101751.38;5056835;28;20045;-61
2022/06/20 08:26:22;;;;;;;9.48;2.40;;;;;;;18.38;54.40;101753.16;5043141;28;20039;-60
2022/06/20 08:28:56;;;;;;;8.70;2.35;;;;;;;18.39;54.11;101754.91;5042855;28;20028;-60
2022/06/20 08:31:27;;;;;;;5.82;1.70;;;;;;;18.21;54.50;101756.72;5060896;28;20060;-59
2022/06/20 08:33:59;;;;;;;6.70;1.67;;;;;;;18.24;51.57;101759.25;5074312;28;20497;-60
2022/06/20 08:36:32;;;;;;;6.72;1.70;;;;;;;18.27;51.59;101753.75;5080409;28;20471;-61
2022/06/20 08:39:21;;;;;;;4.00;1.38;;;;;;;18.34;51.13;101763.16;5079783;28;20024;-60
2022/06/20 08:41:59;;;;;;;8.07;1.98;;;;;;;18.44;50.31;101761.72;5066859;28;20043;-61
2022/06/20 08:44:24;;;;;;;4.60;1.45;;;;;;;18.39;49.47;101765.59;5080074;28;20059;-60
2022/06/20 08:47:14;;;;;;;7.20;1.75;;;;;;;18.44;49.54;101763.53;5069680;28;20045;-61
2022/06/20 08:49:55;;;;;;;7.50;2.15;;;;;;;18.46;50.30;101775.00;5057067;28;20040;-61
2022/06/20 08:52:47;;;;;;;8.82;1.80;;;;;;;18.54;51.28;101769.22;5079353;28;20039;-60
2022/06/20 08:55:56;;;;;;;6.90;1.55;;;;;;;18.65;51.71;101766.84;5071026;28;20027;-61
2022/06/20 08:58:47;;;;;;;8.52;2.08;;;;;;;18.75;50.92;101771.72;5014988;28;20364;-62
2022/06/20 09:01:37;;;;;;;4.00;1.45;;;;;;;18.82;51.31;101783.78;5066579;28;20033;-60
2022/06/20 09:04:07;;;;;;;20.92;2.47;;;;;;;18.88;51.84;101786.13;5045014;28;20071;-62
2022/06/20 09:06:51;;;;;;;10.38;1.58;;;;;;;18.87;48.69;101780.88;5065003;28;20059;-61
2022/06/20 09:09:58;;;;;;;9.65;2.28;;;;;;;18.75;49.76;101780.56;5041924;28;20039;-60
2022/06/20 09:12:38;;;;;;;4.43;1.60;;;;;;;19.02;48.09;101793.38;4964771;28;20163;-60
2022/06/20 09:15:31;;;;;;;6.35;2.10;;;;;;;18.87;50.53;101788.88;4964407;28;20602;-60
2022/06/20 09:18:22;;;;;;;9.02;1.98;;;;;;;18.65;48.88;101790.88;5033658;28;20514;-61
2022/06/20 09:21:17;;;;;;;7.13;2.00;;;;;;;18.77;49.79;101792.03;5048460;28;20059;-61
2022/06/20 09:24:14;;;;;;;7.13;1.73;;;;;;;18.65;49.08;101798.88;5043034;28;20124;-59
2022/06/20 09:26:51;;;;;;;4.75;2.00;;;;;;;18.59;50.51;101793.88;5047258;28;20020;-59
2022/06/20 09:29:54;;;;;;;7.75;1.73;;;;;;;18.53;51.25;101800.41;5047324;28;20060;-61
2022/06/20 09:32:56;;;;;;;8.25;2.50;;;;;;;18.61;52.74;101797.34;5066223;28;20674;-62
2022/06/20 09:36:00;;;;;;;9.30;2.22;;;;;;;18.62;53.15;101807.06;5030992;28;20032;-64
2022/06/20 09:38:43;;;;;;;11.15;2.70;;;;;;;18.62;55.01;101809.72;4996705;28;20550;-62
2022/06/20 09:41:21;;;;;;;9.25;2.45;;;;;;;18.61;53.97;101797.34;5044858;28;20071;-62
2022/06/20 09:44:05;;;;;;;11.50;2.03;;;;;;;18.89;49.61;101817.22;5065337;28;20050;-63
2022/06/20 09:46:40;;;;;;;7.03;2.47;;;;;;;18.67;50.80;101814.81;5047075;28;20040;-62
2022/06/20 09:49:27;;;;;;;7.68;2.28;;;;;;;19.02;48.27;101821.91;5027306;28;20034;-63
2022/06/20 09:52:11;;;;;;;8.75;2.42;;;;;;;19.37;48.29;101826.25;5046055;28;20167;-63
2022/06/20 09:54:52;;;;;;;9.77;2.60;;;;;;;19.34;50.37;101827.28;5044972;28;20044;-64
2022/06/20 09:57:44;;;;;;;9.55;2.47;;;;;;;19.44;49.56;101831.19;5047863;28;20044;-63
2022/06/20 10:00:15;;;;;;;6.32;2.00;;;;;;;19.74;48.57;101834.03;5042429;28;20025;-63
2022/06/20 10:03:04;;;;;;;11.85;2.35;;;;;;;19.95;48.99;101838.13;5028033;28;20025;-62
2022/06/20 10:05:45;;;;;;;11.77;2.47;;;;;;;19.98;49.29;101836.22;5027320;28;20024;-62
2022/06/20 10:08:55;;;;;;;9.27;2.70;;;;;;;20.39;48.42;101832.94;5044635;28;20048;-62
2022/06/20 10:11:25;;;;;;;10.70;2.60;;;;;;;20.40;48.33;101840.00;4955295;28;20034;-65
2022/06/20 10:14:12;;;;;;;12.07;2.28;;;;;;;20.47;47.81;101842.31;5017794;28;20040;-63
2022/06/20 10:16:53;;;;;;;17.63;3.30;;;;;;;20.16;47.09;101837.84;5038903;28;20067;-61
2022/06/20 10:19:37;;;;;;;10.88;2.45;;;;;;;20.20;48.46;101852.75;5047564;28;20036;-63
2022/06/20 10:22:11;;;;;;;8.18;2.10;;;;;;;20.15;48.18;101849.50;5064023;28;20024;-63
2022/06/20 10:25:01;;;;;;;5.00;2.22;;;;;;;20.16;45.49;101845.88;5046718;28;20025;-63
2022/06/20 10:27:51;;;;;;;11.98;2.22;;;;;;;20.25;47.35;101848.94;5064681;28;20379;-64
2022/06/20 10:30:25;;;;;;;8.25;2.10;;;;;;;20.37;48.82;101850.91;5045278;28;20483;-61
2022/06/20 10:33:06;;;;;;;7.70;2.15;;;;;;;20.26;48.18;101858.72;5063917;28;20495;-64
2022/06/20 10:35:58;;;;;;;12.32;2.50;;;;;;;20.28;48.23;101859.47;5045367;28;20027;-68
2022/06/20 10:38:26;;;;;;;10.10;2.17;;;;;;;20.19;48.79;101853.72;5021504;28;20042;-63
2022/06/20 10:40:54;;;;;;;13.35;2.75;;;;;;;20.12;49.48;101854.16;5045474;28;20035;-65
2022/06/20 10:43:56;;;;;;;11.02;2.67;;;;;;;20.24;48.55;101863.28;5064877;28;20071;-64
2022/06/20 10:46:26;;;;;;;9.85;2.63;;;;;;;20.31;49.53;101870.88;5062719;28;20071;-61
2022/06/20 10:49:13;;;;;;;6.15;2.20;;;;;;;20.27;48.47;101863.97;5064680;28;20078;-64
2022/06/20 10:51:48;;;;;;;13.18;2.20;;;;;;;20.32;48.03;101871.75;5059559;28;20028;-62
2022/06/20 10:54:19;;;;;;;9.80;2.08;;;;;;;20.19;47.73;101874.25;5043358;28;20021;-62
2022/06/20 10:56:51;;;;;;;5.75;1.95;;;;;;;20.13;46.66;101871.94;5064037;28;20020;-63
2022/06/20 10:59:29;;;;;;;4.38;1.60;;;;;;;20.38;44.81;101871.34;5064087;28;20013;-62
2022/06/20 11:02:12;;;;;;;12.43;2.47;;;;;;;20.54;46.30;101878.47;5046310;28;20115;-63
2022/06/20 11:04:56;;;;;;;7.55;1.75;;;;;;;20.94;45.10;101877.88;5063445;28;20031;-63
2022/06/20 11:07:37;;;;;;;6.40;1.80;;;;;;;20.82;44.56;101885.69;5063638;28;20083;-65
2022/06/20 11:10:34;;;;;;;13.13;2.20;;;;;;;21.00;44.32;101876.63;5028532;28;20399;-62
2022/06/20 11:13:07;;;;;;;8.13;2.28;;;;;;;21.02;43.29;101874.75;5046119;28;20029;-62
2022/06/20 11:15:33;;;;;;;8.18;1.85;;;;;;;20.73;43.34;101886.25;5063866;28;20056;-63
2022/06/20 11:18:04;;;;;;;8.95;2.13;;;;;;;20.58;44.92;101893.41;5064234;28;20469;-62
2022/06/20 11:20:43;;;;;;;8.40;2.20;;;;;;;21.07;43.80;101894.94;5063989;28;20454;-62
2022/06/20 11:23:50;;;;;;;9.40;2.13;;;;;;;21.52;43.07;101893.09;5063175;28;20122;-63
2022/06/20 11:26:21;;;;;;;7.47;2.20;;;;;;;21.21;43.30;101891.41;5062705;28;20411;-64
2022/06/20 11:29:12;;;;;;;7.97;2.03;;;;;;;21.33;43.91;101904.97;5042958;28;20444;-63
2022/06/20 11:31:48;;;;;;;6.78;2.15;;;;;;;21.35;42.90;101895.03;5062860;28;20037;-64
2022/06/20 11:34:37;;;;;;;5.93;1.95;;;;;;;21.12;43.71;101897.31;5044083;28;20073;-63
2022/06/20 11:37:21;;;;;;;7.95;2.38;;;;;;;21.07;43.36;101894.94;5045085;28;20036;-63
2022/06/20 11:40:04;;;;;;;10.60;2.15;;;;;;;21.03;44.33;101892.53;5040279;28;20104;-62
2022/06/20 11:42:41;;;;;;;10.65;1.95;;;;;;;21.64;43.55;101894.97;5044843;28;20140;-61
2022/06/20 11:45:15;;;;;;;8.15;1.88;;;;;;;21.98;43.27;101896.44;5043699;28;20053;-62
2022/06/20 11:48:15;;;;;;;11.05;2.28;;;;;;;22.08;43.41;101910.97;5043982;28;20078;-64
2022/06/20 11:50:46;;;;;;;7.18;2.03;;;;;;;21.96;43.52;101905.47;5043586;28;20098;-61
2022/06/20 11:53:33;;;;;;;7.32;2.05;;;;;;;22.63;41.03;101902.88;5043272;28;20013;-62
2022/06/20 11:56:22;;;;;;;12.85;2.30;;;;;;;22.61;42.06;101907.50;5056129;28;20037;-62
2022/06/20 11:59:02;;;;;;;7.60;1.95;;;;;;;22.28;42.73;101911.47;5064027;28;20024;-63
2022/06/20 12:01:38;;;;;;;7.80;2.30;;;;;;;22.21;43.32;101917.25;5015704;28;20033;-62
2022/06/20 12:04:29;;;;;;;12.90;2.75;;;;;;;22.05;44.13;101919.22;5051250;28;20048;-62
2022/06/20 12:07:15;;;;;;;14.27;2.53;;;;;;;21.52;45.96;101919.91;5048064;28;20029;-62
2022/06/20 12:09:50;;;;;;;16.20;3.20;;;;;;;21.26;47.17;101919.72;5044123;28;20044;-63
2022/06/20 12:12:28;;;;;;;12.20;2.60;;;;;;;21.31;47.10;101928.34;5028152;28;20128;-64
2022/06/20 12:15:32;;;;;;;9.95;2.67;;;;;;;21.04;48.49;101926.44;5063291;28;20025;-62
2022/06/20 12:18:24;;;;;;;14.25;2.67;;;;;;;20.89;48.24;101923.66;5032664;28;20037;-62
2022/06/20 12:23:53;;;;;;;11.18;2.35;;;;;;;21.73;48.03;101920.31;5016276;28;20044;-62
2022/06/20 12:26:23;;;;;;;15.95;3.25;;;;;;;22.03;46.76;101926.53;5044684;28;20542;-61
2022/06/20 12:28:51;;;;;;;8.38;2.60;;;;;;;22.27;46.61;101924.03;5027502;28;20418;-64
2022/06/20 12:31:31;;;;;;;12.02;2.85;;;;;;;22.29;46.22;101930.16;5028093;28;20025;-61
2022/06/20 12:34:23;;;;;;;12.48;2.70;;;;;;;22.45;45.60;101916.56;5047869;28;20112;-63
2022/06/20 12:36:57;;;;;;;11.77;2.83;;;;;;;22.93;44.43;101906.22;5066820;28;20036;-62
2022/06/20 12:39:26;;;;;;;9.70;2.83;;;;;;;22.96;44.10;101912.25;5029471;28;20032;-62
2022/06/20 12:41:57;;;;;;;10.05;2.63;;;;;;;23.05;43.54;101901.78;5029014;28;20514;-62
2022/06/20 12:44:31;;;;;;;9.65;2.33;;;;;;;22.84;42.23;101913.09;5048126;28;20080;-63
2022/06/20 12:47:03;;;;;;;9.18;2.15;;;;;;;22.34;43.05;101905.69;5067020;28;20028;-62